sensor_id;sensor_type;location;lat;lon;timestamp;pressure;altitude;pressure_sealevel;temperature;humidity
22550;BME280;11441;57.164;-2.120;2023-01-27T00:02:18;102979.13;;;3.66;100.00
22550;BME280;11441;57.164;-2.120;2023-01-27T00:04:45;102973.41;;;3.68;100.00
22550;BME280;11441;57.164;-2.120;2023-01-27T00:07:31;102971.81;;;3.72;100.00
22550;BME280;11441;57.164;-2.120;2023-01-27T00:09:57;102960.97;;;3.77;100.00
22550;BME280;11441;57.164;-2.120;2023-01-27T00:12:25;102965.69;;;3.82;100.00
22550;BME280;11441;57.164;-2.120;2023-01-27T00:15:13;102967.88;;;3.85;100.00
22550;BME280;11441;57.164;-2.120;2023-01-27T00:17:40;102963.84;;;3.87;100.00
22550;BME280;11441;57.164;-2.120;2023-01-27T00:20:08;102961.94;;;3.88;100.00
22550;BME280;11441;57.164;-2.120;2023-01-27T00:22:53;102953.56;;;3.72;100.00
22550;BME280;11441;57.164;-2.120;2023-01-27T00:25:56;102956.44;;;3.61;100.00
22550;BME280;11441;57.164;-2.120;2023-01-27T00:28:26;102947.41;;;3.38;100.00
22550;BME280;11441;57.164;-2.120;2023-01-27T00:30:57;102942.41;;;3.52;100.00
22550;BME280;11441;57.164;-2.120;2023-01-27T00:33:25;102943.09;;;3.42;100.00
22550;BME280;11441;57.164;-2.120;2023-01-27T00:36:06;102936.19;;;3.56;100.00
22550;BME280;11441;57.164;-2.120;2023-01-27T00:38:51;102931.88;;;3.38;100.00
22550;BME280;11441;57.164;-2.120;2023-01-27T00:41:18;102936.31;;;3.45;100.00
22550;BME280;11441;57.164;-2.120;2023-01-27T00:43:48;102938.03;;;3.51;100.00
22550;BME280;11441;57.164;-2.120;2023-01-27T00:46:16;102931.94;;;3.44;100.00
22550;BME280;11441;57.164;-2.120;2023-01-27T00:48:43;102921.97;;;3.32;100.00
22550;BME280;11441;57.164;-2.120;2023-01-27T00:51:11;102922.03;;;3.37;100.00
22550;BME280;11441;57.164;-2.120;2023-01-27T00:53:40;102925.72;;;3.48;100.00
22550;BME280;11441;57.164;-2.120;2023-01-27T00:56:07;102914.72;;;3.38;100.00
22550;BME280;11441;57.164;-2.120;2023-01-27T00:58:34;102904.88;;;3.37;100.00
22550;BME280;11441;57.164;-2.120;2023-01-27T01:01:19;102897.72;;;3.31;100.00
22550;BME280;11441;57.164;-2.120;2023-01-27T01:03:45;102894.25;;;3.35;100.00
22550;BME280;11441;57.164;-2.120;2023-01-27T01:06:15;102890.38;;;3.31;100.00
22550;BME280;11441;57.164;-2.120;2023-01-27T01:08:42;102885.69;;;3.27;100.00
22550;BME280;11441;57.164;-2.120;2023-01-27T01:11:28;102877.94;;;3.18;100.00
22550;BME280;11441;57.164;-2.120;2023-01-27T01:13:54;102872.81;;;3.22;100.00
22550;BME280;11441;57.164;-2.120;2023-01-27T01:16:23;102873.19;;;3.31;100.00
22550;BME280;11441;57.164;-2.120;2023-01-27T01:18:50;102874.28;;;3.30;100.00
22550;BME280;11441;57.164;-2.120;2023-01-27T01:21:17;102871.69;;;3.18;100.00
22550;BME280;11441;57.164;-2.120;2023-01-27T01:23:44;102864.13;;;3.03;100.00
22550;BME280;11441;57.164;-2.120;2023-01-27T01:26:16;102859.13;;;2.95;100.00
22550;BME280;11441;57.164;-2.120;2023-01-27T01:29:02;102856.25;;;2.85;100.00
22550;BME280;11441;57.164;-2.120;2023-01-27T01:31:29;102850.78;;;2.85;100.00
22550;BME280;11441;57.164;-2.120;2023-01-27T01:33:56;102845.81;;;2.98;100.00
22550;BME280;11441;57.164;-2.120;2023-01-27T01:36:23;102854.38;;;3.07;100.00
22550;BME280;11441;57.164;-2.120;2023-01-27T01:38:54;102851.16;;;3.10;100.00
22550;BME280;11441;57.164;-2.120;2023-01-27T01:41:40;102853.03;;;3.10;100.00
22550;BME280;11441;57.164;-2.120;2023-01-27T01:44:26;102851.72;;;3.12;100.00
22550;BME280;11441;57.164;-2.120;2023-01-27T01:46:53;102856.16;;;3.18;100.00
22550;BME280;11441;57.164;-2.120;2023-01-27T01:49:34;102845.97;;;3.09;100.00
22550;BME280;11441;57.164;-2.120;2023-01-27T01:52:07;102842.06;;;3.05;100.00
22550;BME280;11441;57.164;-2.120;2023-01-27T01:54:43;102844.56;;;3.06;100.00
22550;BME280;11441;57.164;-2.120;2023-01-27T01:57:26;102839.34;;;3.05;100.00
22550;BME280;11441;57.164;-2.120;2023-01-27T01:59:59;102848.22;;;2.95;100.00
22550;BME280;11441;57.164;-2.120;2023-01-27T02:02:28;102843.38;;;2.80;100.00
22550;BME280;11441;57.164;-2.120;2023-01-27T02:04:59;102848.72;;;2.92;100.00
22550;BME280;11441;57.164;-2.120;2023-01-27T02:07:41;102842.88;;;2.83;100.00
22550;BME280;11441;57.164;-2.120;2023-01-27T02:10:10;102845.53;;;2.78;100.00
22550;BME280;11441;57.164;-2.120;2023-01-27T02:12:38;102850.72;;;2.79;100.00
22550;BME280;11441;57.164;-2.120;2023-01-27T02:15:07;102855.69;;;2.66;100.00
22550;BME280;11441;57.164;-2.120;2023-01-27T02:17:34;102843.41;;;2.63;100.00
22550;BME280;11441;57.164;-2.120;2023-01-27T02:20:22;102848.63;;;2.48;100.00
22550;BME280;11441;57.164;-2.120;2023-01-27T02:28:21;102847.78;;;2.30;100.00
22550;BME280;11441;57.164;-2.120;2023-01-27T02:30:48;102840.44;;;2.31;100.00
22550;BME280;11441;57.164;-2.120;2023-01-27T02:33:15;102830.78;;;2.23;100.00
22550;BME280;11441;57.164;-2.120;2023-01-27T02:38:35;102830.63;;;2.30;100.00
22550;BME280;11441;57.164;-2.120;2023-01-27T02:41:27;102828.00;;;2.18;100.00
22550;BME280;11441;57.164;-2.120;2023-01-27T02:44:14;102819.34;;;2.21;100.00
22550;BME280;11441;57.164;-2.120;2023-01-27T02:46:42;102814.63;;;2.33;100.00
22550;BME280;11441;57.164;-2.120;2023-01-27T02:49:09;102814.13;;;2.19;100.00
22550;BME280;11441;57.164;-2.120;2023-01-27T02:51:36;102819.91;;;2.23;100.00
22550;BME280;11441;57.164;-2.120;2023-01-27T02:54:04;102810.13;;;2.22;100.00
22550;BME280;11441;57.164;-2.120;2023-01-27T02:56:31;102806.41;;;2.28;100.00
22550;BME280;11441;57.164;-2.120;2023-01-27T02:58:58;102808.13;;;2.17;100.00
22550;BME280;11441;57.164;-2.120;2023-01-27T03:01:50;102799.66;;;2.14;100.00
22550;BME280;11441;57.164;-2.120;2023-01-27T03:04:18;102796.91;;;1.97;100.00
22550;BME280;11441;57.164;-2.120;2023-01-27T03:06:44;102783.22;;;1.75;100.00
22550;BME280;11441;57.164;-2.120;2023-01-27T03:09:11;102788.69;;;1.92;100.00
22550;BME280;11441;57.164;-2.120;2023-01-27T03:11:38;102797.56;;;1.87;100.00
22550;BME280;11441;57.164;-2.120;2023-01-27T03:14:24;102793.03;;;1.93;100.00
22550;BME280;11441;57.164;-2.120;2023-01-27T03:17:09;102798.31;;;1.99;100.00
22550;BME280;11441;57.164;-2.120;2023-01-27T03:19:55;102780.25;;;1.93;100.00
22550;BME280;11441;57.164;-2.120;2023-01-27T03:22:24;102789.16;;;2.05;100.00
22550;BME280;11441;57.164;-2.120;2023-01-27T03:24:52;102781.84;;;1.89;100.00
22550;BME280;11441;57.164;-2.120;2023-01-27T03:27:20;102784.88;;;1.93;100.00
22550;BME280;11441;57.164;-2.120;2023-01-27T03:30:05;102781.50;;;1.85;100.00
22550;BME280;11441;57.164;-2.120;2023-01-27T03:32:35;102772.53;;;1.85;100.00
22550;BME280;11441;57.164;-2.120;2023-01-27T03:35:33;102781.72;;;1.67;100.00
22550;BME280;11441;57.164;-2.120;2023-01-27T03:38:06;102770.81;;;1.50;100.00
22550;BME280;11441;57.164;-2.120;2023-01-27T03:40:54;102770.31;;;1.53;100.00
22550;BME280;11441;57.164;-2.120;2023-01-27T03:43:40;102779.06;;;1.55;100.00
22550;BME280;11441;57.164;-2.120;2023-01-27T03:46:25;102782.56;;;1.67;100.00
22550;BME280;11441;57.164;-2.120;2023-01-27T03:49:11;102788.00;;;1.67;100.00
22550;BME280;11441;57.164;-2.120;2023-01-27T03:51:37;102789.03;;;1.66;100.00
22550;BME280;11441;57.164;-2.120;2023-01-27T03:54:04;102779.41;;;1.59;100.00
22550;BME280;11441;57.164;-2.120;2023-01-27T03:56:31;102781.19;;;1.53;100.00
22550;BME280;11441;57.164;-2.120;2023-01-27T03:59:16;102784.50;;;1.55;100.00
22550;BME280;11441;57.164;-2.120;2023-01-27T04:01:43;102785.19;;;1.62;100.00
22550;BME280;11441;57.164;-2.120;2023-01-27T04:04:11;102779.25;;;1.37;100.00
22550;BME280;11441;57.164;-2.120;2023-01-27T04:06:56;102764.00;;;1.07;100.00
22550;BME280;11441;57.164;-2.120;2023-01-27T04:09:31;102764.13;;;1.12;100.00
22550;BME280;11441;57.164;-2.120;2023-01-27T04:12:03;102749.19;;;0.98;100.00
22550;BME280;11441;57.164;-2.120;2023-01-27T04:17:01;102754.34;;;1.40;100.00
22550;BME280;11441;57.164;-2.120;2023-01-27T04:19:28;102747.59;;;1.42;100.00
22550;BME280;11441;57.164;-2.120;2023-01-27T04:21:56;102752.88;;;1.49;100.00
22550;BME280;11441;57.164;-2.120;2023-01-27T04:24:23;102747.09;;;1.45;100.00
22550;BME280;11441;57.164;-2.120;2023-01-27T04:27:05;102749.69;;;1.52;100.00
22550;BME280;11441;57.164;-2.120;2023-01-27T04:29:51;102745.69;;;1.43;100.00
22550;BME280;11441;57.164;-2.120;2023-01-27T04:32:18;102742.63;;;1.39;100.00
22550;BME280;11441;57.164;-2.120;2023-01-27T04:34:45;102735.56;;;1.38;100.00
22550;BME280;11441;57.164;-2.120;2023-01-27T04:37:11;102741.44;;;1.47;100.00
22550;BME280;11441;57.164;-2.120;2023-01-27T04:39:39;102729.56;;;1.53;100.00
22550;BME280;11441;57.164;-2.120;2023-01-27T04:42:07;102734.19;;;1.53;100.00
22550;BME280;11441;57.164;-2.120;2023-01-27T04:44:34;102740.44;;;1.53;100.00
22550;BME280;11441;57.164;-2.120;2023-01-27T04:47:00;102726.66;;;1.43;100.00
22550;BME280;11441;57.164;-2.120;2023-01-27T04:49:27;102721.59;;;1.46;100.00
22550;BME280;11441;57.164;-2.120;2023-01-27T04:51:54;102719.94;;;1.45;100.00
22550;BME280;11441;57.164;-2.120;2023-01-27T04:54:21;102720.91;;;1.39;100.00
22550;BME280;11441;57.164;-2.120;2023-01-27T04:56:57;102718.28;;;1.44;100.00
22550;BME280;11441;57.164;-2.120;2023-01-27T04:59:24;102712.75;;;1.22;100.00
22550;BME280;11441;57.164;-2.120;2023-01-27T05:01:52;102710.59;;;1.24;100.00
22550;BME280;11441;57.164;-2.120;2023-01-27T05:04:19;102707.75;;;1.31;100.00
22550;BME280;11441;57.164;-2.120;2023-01-27T05:06:45;102697.56;;;1.38;100.00
22550;BME280;11441;57.164;-2.120;2023-01-27T05:09:12;102700.13;;;1.45;100.00
22550;BME280;11441;57.164;-2.120;2023-01-27T05:11:39;102697.47;;;1.33;100.00
22550;BME280;11441;57.164;-2.120;2023-01-27T05:14:06;102697.06;;;1.12;100.00
22550;BME280;11441;57.164;-2.120;2023-01-27T05:16:33;102690.69;;;1.19;100.00
22550;BME280;11441;57.164;-2.120;2023-01-27T05:19:00;102686.66;;;1.21;100.00
22550;BME280;11441;57.164;-2.120;2023-01-27T05:21:27;102680.03;;;1.29;100.00
22550;BME280;11441;57.164;-2.120;2023-01-27T05:23:56;102680.06;;;1.17;100.00
22550;BME280;11441;57.164;-2.120;2023-01-27T05:26:25;102680.00;;;1.00;100.00
22550;BME280;11441;57.164;-2.120;2023-01-27T05:28:53;102678.41;;;1.16;100.00
22550;BME280;11441;57.164;-2.120;2023-01-27T05:31:25;102678.22;;;1.35;100.00
22550;BME280;11441;57.164;-2.120;2023-01-27T05:33:54;102682.84;;;1.51;100.00
22550;BME280;11441;57.164;-2.120;2023-01-27T05:36:22;102676.09;;;1.54;100.00
22550;BME280;11441;57.164;-2.120;2023-01-27T05:38:50;102677.78;;;1.43;100.00
22550;BME280;11441;57.164;-2.120;2023-01-27T05:41:17;102673.38;;;1.54;100.00
22550;BME280;11441;57.164;-2.120;2023-01-27T05:43:46;102676.53;;;1.62;100.00
22550;BME280;11441;57.164;-2.120;2023-01-27T05:46:32;102677.25;;;1.75;100.00
22550;BME280;11441;57.164;-2.120;2023-01-27T05:49:01;102674.53;;;1.75;100.00
22550;BME280;11441;57.164;-2.120;2023-01-27T05:51:35;102679.97;;;1.75;100.00
22550;BME280;11441;57.164;-2.120;2023-01-27T05:54:02;102675.94;;;1.77;100.00
22550;BME280;11441;57.164;-2.120;2023-01-27T05:56:48;102677.81;;;1.77;100.00
22550;BME280;11441;57.164;-2.120;2023-01-27T05:59:15;102675.13;;;1.77;100.00
22550;BME280;11441;57.164;-2.120;2023-01-27T06:01:42;102666.88;;;1.72;100.00
22550;BME280;11441;57.164;-2.120;2023-01-27T06:04:11;102677.25;;;1.75;100.00
22550;BME280;11441;57.164;-2.120;2023-01-27T06:06:37;102673.03;;;1.67;100.00
22550;BME280;11441;57.164;-2.120;2023-01-27T06:09:04;102670.50;;;1.60;100.00
22550;BME280;11441;57.164;-2.120;2023-01-27T06:11:31;102644.88;;;1.56;100.00
22550;BME280;11441;57.164;-2.120;2023-01-27T06:13:58;102646.88;;;1.61;100.00
22550;BME280;11441;57.164;-2.120;2023-01-27T06:16:25;102658.16;;;1.69;100.00
22550;BME280;11441;57.164;-2.120;2023-01-27T06:18:51;102651.31;;;1.67;100.00
22550;BME280;11441;57.164;-2.120;2023-01-27T06:21:18;102658.47;;;1.56;100.00
22550;BME280;11441;57.164;-2.120;2023-01-27T06:23:46;102656.44;;;1.46;100.00
22550;BME280;11441;57.164;-2.120;2023-01-27T06:26:15;102648.38;;;1.52;100.00
22550;BME280;11441;57.164;-2.120;2023-01-27T06:28:42;102650.97;;;1.63;100.00
22550;BME280;11441;57.164;-2.120;2023-01-27T06:31:15;102654.88;;;1.67;100.00
22550;BME280;11441;57.164;-2.120;2023-01-27T06:33:42;102661.03;;;1.63;100.00
22550;BME280;11441;57.164;-2.120;2023-01-27T06:36:12;102659.56;;;1.55;100.00
22550;BME280;11441;57.164;-2.120;2023-01-27T06:38:39;102655.34;;;1.64;100.00
22550;BME280;11441;57.164;-2.120;2023-01-27T06:41:07;102661.69;;;1.70;100.00
22550;BME280;11441;57.164;-2.120;2023-01-27T06:43:34;102663.34;;;1.71;100.00
22550;BME280;11441;57.164;-2.120;2023-01-27T06:46:01;102656.16;;;1.65;100.00
22550;BME280;11441;57.164;-2.120;2023-01-27T06:48:32;102642.19;;;1.73;100.00
22550;BME280;11441;57.164;-2.120;2023-01-27T06:50:59;102644.66;;;1.75;100.00
22550;BME280;11441;57.164;-2.120;2023-01-27T06:53:26;102648.91;;;1.70;100.00
22550;BME280;11441;57.164;-2.120;2023-01-27T06:55:55;102643.16;;;1.84;100.00
22550;BME280;11441;57.164;-2.120;2023-01-27T06:58:22;102637.06;;;1.77;100.00
22550;BME280;11441;57.164;-2.120;2023-01-27T07:00:49;102644.66;;;1.75;100.00
22550;BME280;11441;57.164;-2.120;2023-01-27T07:03:16;102641.94;;;1.75;100.00
22550;BME280;11441;57.164;-2.120;2023-01-27T07:05:43;102643.00;;;1.74;100.00
22550;BME280;11441;57.164;-2.120;2023-01-27T07:08:10;102638.50;;;1.62;100.00
22550;BME280;11441;57.164;-2.120;2023-01-27T07:10:36;102630.50;;;1.56;100.00
22550;BME280;11441;57.164;-2.120;2023-01-27T07:13:06;102640.78;;;1.54;100.00
22550;BME280;11441;57.164;-2.120;2023-01-27T07:15:34;102640.13;;;1.46;100.00
22550;BME280;11441;57.164;-2.120;2023-01-27T07:18:01;102639.53;;;1.44;100.00
22550;BME280;11441;57.164;-2.120;2023-01-27T07:20:28;102635.81;;;1.34;100.00
22550;BME280;11441;57.164;-2.120;2023-01-27T07:22:57;102628.16;;;1.13;100.00
22550;BME280;11441;57.164;-2.120;2023-01-27T07:25:24;102618.06;;;0.97;100.00
22550;BME280;11441;57.164;-2.120;2023-01-27T07:27:52;102620.25;;;1.12;100.00
22550;BME280;11441;57.164;-2.120;2023-01-27T07:30:19;102609.59;;;1.22;100.00
22550;BME280;11441;57.164;-2.120;2023-01-27T07:32:45;102612.63;;;1.26;100.00
22550;BME280;11441;57.164;-2.120;2023-01-27T07:35:12;102599.97;;;1.31;100.00
22550;BME280;11441;57.164;-2.120;2023-01-27T07:37:39;102604.81;;;1.29;100.00
22550;BME280;11441;57.164;-2.120;2023-01-27T07:40:08;102600.38;;;1.40;100.00
22550;BME280;11441;57.164;-2.120;2023-01-27T07:42:35;102599.38;;;1.29;100.00
22550;BME280;11441;57.164;-2.120;2023-01-27T07:45:02;102592.28;;;1.28;100.00
22550;BME280;11441;57.164;-2.120;2023-01-27T07:47:29;102576.44;;;1.20;100.00
22550;BME280;11441;57.164;-2.120;2023-01-27T07:49:56;102571.16;;;1.13;100.00
22550;BME280;11441;57.164;-2.120;2023-01-27T07:52:23;102567.50;;;1.08;100.00
22550;BME280;11441;57.164;-2.120;2023-01-27T07:54:50;102573.13;;;1.18;100.00
22550;BME280;11441;57.164;-2.120;2023-01-27T07:57:17;102566.69;;;1.07;100.00
22550;BME280;11441;57.164;-2.120;2023-01-27T07:59:44;102570.50;;;1.23;100.00
22550;BME280;11441;57.164;-2.120;2023-01-27T08:02:10;102578.06;;;1.21;100.00
22550;BME280;11441;57.164;-2.120;2023-01-27T08:04:37;102578.03;;;1.04;100.00
22550;BME280;11441;57.164;-2.120;2023-01-27T08:07:18;102579.03;;;0.98;100.00
22550;BME280;11441;57.164;-2.120;2023-01-27T08:09:45;102579.59;;;1.00;100.00
22550;BME280;11441;57.164;-2.120;2023-01-27T08:12:12;102581.94;;;1.08;100.00
22550;BME280;11441;57.164;-2.120;2023-01-27T08:14:38;102583.56;;;1.09;100.00
22550;BME280;11441;57.164;-2.120;2023-01-27T08:17:05;102581.00;;;1.03;100.00
22550;BME280;11441;57.164;-2.120;2023-01-27T08:19:32;102581.50;;;1.00;100.00
22550;BME280;11441;57.164;-2.120;2023-01-27T08:21:59;102574.13;;;1.12;100.00
22550;BME280;11441;57.164;-2.120;2023-01-27T08:24:26;102581.69;;;1.27;100.00
22550;BME280;11441;57.164;-2.120;2023-01-27T08:26:53;102585.06;;;1.17;100.00
22550;BME280;11441;57.164;-2.120;2023-01-27T08:29:19;102560.78;;;1.10;100.00
22550;BME280;11441;57.164;-2.120;2023-01-27T08:31:46;102576.91;;;1.34;100.00
22550;BME280;11441;57.164;-2.120;2023-01-27T08:34:13;102581.03;;;1.54;100.00
22550;BME280;11441;57.164;-2.120;2023-01-27T08:36:40;102566.97;;;1.40;100.00
22550;BME280;11441;57.164;-2.120;2023-01-27T08:39:09;102571.16;;;1.47;100.00
22550;BME280;11441;57.164;-2.120;2023-01-27T08:41:36;102565.72;;;1.30;100.00
22550;BME280;11441;57.164;-2.120;2023-01-27T08:44:03;102555.44;;;1.16;100.00
22550;BME280;11441;57.164;-2.120;2023-01-27T08:46:30;102577.59;;;1.41;100.00
22550;BME280;11441;57.164;-2.120;2023-01-27T08:49:34;102567.69;;;1.52;100.00
22550;BME280;11441;57.164;-2.120;2023-01-27T08:52:18;102569.56;;;1.68;100.00
22550;BME280;11441;57.164;-2.120;2023-01-27T08:54:45;102571.78;;;1.88;100.00
22550;BME280;11441;57.164;-2.120;2023-01-27T08:57:11;102571.06;;;1.98;100.00
22550;BME280;11441;57.164;-2.120;2023-01-27T08:59:38;102580.31;;;1.97;100.00
22550;BME280;11441;57.164;-2.120;2023-01-27T09:02:05;102569.25;;;2.04;100.00
22550;BME280;11441;57.164;-2.120;2023-01-27T09:04:32;102562.63;;;2.17;100.00
22550;BME280;11441;57.164;-2.120;2023-01-27T09:07:03;102557.50;;;2.20;100.00
22550;BME280;11441;57.164;-2.120;2023-01-27T09:09:30;102571.66;;;2.22;100.00
22550;BME280;11441;57.164;-2.120;2023-01-27T09:11:57;102563.69;;;2.16;100.00
22550;BME280;11441;57.164;-2.120;2023-01-27T09:14:23;102558.72;;;2.07;100.00
22550;BME280;11441;57.164;-2.120;2023-01-27T09:16:50;102561.59;;;2.23;100.00
22550;BME280;11441;57.164;-2.120;2023-01-27T09:19:17;102558.06;;;2.22;100.00
22550;BME280;11441;57.164;-2.120;2023-01-27T09:21:44;102561.47;;;2.35;100.00
22550;BME280;11441;57.164;-2.120;2023-01-27T09:24:11;102550.91;;;2.38;100.00
22550;BME280;11441;57.164;-2.120;2023-01-27T09:26:41;102537.91;;;2.40;100.00
22550;BME280;11441;57.164;-2.120;2023-01-27T09:29:07;102537.66;;;2.47;100.00
22550;BME280;11441;57.164;-2.120;2023-01-27T09:31:34;102535.38;;;2.61;100.00
22550;BME280;11441;57.164;-2.120;2023-01-27T09:34:01;102535.31;;;2.56;100.00
22550;BME280;11441;57.164;-2.120;2023-01-27T09:36:31;102549.88;;;2.67;100.00
22550;BME280;11441;57.164;-2.120;2023-01-27T09:39:05;102541.75;;;2.72;100.00
22550;BME280;11441;57.164;-2.120;2023-01-27T09:55:24;102521.22;;;2.59;100.00
22550;BME280;11441;57.164;-2.120;2023-01-27T10:06:21;102508.06;;;2.78;100.00
22550;BME280;11441;57.164;-2.120;2023-01-27T10:09:26;102507.75;;;3.01;100.00
22550;BME280;11441;57.164;-2.120;2023-01-27T10:23:21;102508.13;;;2.83;100.00
22550;BME280;11441;57.164;-2.120;2023-01-27T10:28:47;102499.06;;;3.10;100.00
22550;BME280;11441;57.164;-2.120;2023-01-27T10:31:25;102491.50;;;3.17;100.00
22550;BME280;11441;57.164;-2.120;2023-01-27T10:34:21;102479.00;;;3.21;100.00
22550;BME280;11441;57.164;-2.120;2023-01-27T10:39:55;102460.84;;;2.94;100.00
22550;BME280;11441;57.164;-2.120;2023-01-27T10:43:05;102468.63;;;3.18;100.00
22550;BME280;11441;57.164;-2.120;2023-01-27T10:45:41;102481.84;;;2.99;100.00
22550;BME280;11441;57.164;-2.120;2023-01-27T10:51:31;102480.00;;;3.10;100.00
22550;BME280;11441;57.164;-2.120;2023-01-27T10:56:56;102474.16;;;3.28;100.00
22550;BME280;11441;57.164;-2.120;2023-01-27T10:59:29;102467.91;;;3.28;100.00
22550;BME280;11441;57.164;-2.120;2023-01-27T11:02:55;102463.00;;;3.30;100.00
22550;BME280;11441;57.164;-2.120;2023-01-27T11:05:01;102450.03;;;3.47;100.00
22550;BME280;11441;57.164;-2.120;2023-01-27T11:07:32;102423.53;;;3.37;100.00
22550;BME280;11441;57.164;-2.120;2023-01-27T11:10:15;102438.97;;;3.64;100.00
22550;BME280;11441;57.164;-2.120;2023-01-27T11:12:47;102441.91;;;3.57;100.00
22550;BME280;11441;57.164;-2.120;2023-01-27T11:15:31;102438.44;;;3.77;100.00
22550;BME280;11441;57.164;-2.120;2023-01-27T11:18:12;102444.50;;;3.90;100.00
22550;BME280;11441;57.164;-2.120;2023-01-27T11:20:50;102434.53;;;3.53;100.00
22550;BME280;11441;57.164;-2.120;2023-01-27T11:23:24;102429.59;;;3.50;100.00
22550;BME280;11441;57.164;-2.120;2023-01-27T11:26:29;102416.03;;;3.60;100.00
22550;BME280;11441;57.164;-2.120;2023-01-27T11:29:27;102401.66;;;3.75;100.00
22550;BME280;11441;57.164;-2.120;2023-01-27T11:32:04;102401.13;;;3.78;100.00
22550;BME280;11441;57.164;-2.120;2023-01-27T11:37:21;102388.03;;;3.80;100.00
22550;BME280;11441;57.164;-2.120;2023-01-27T11:39:49;102379.00;;;3.64;100.00
22550;BME280;11441;57.164;-2.120;2023-01-27T11:42:16;102374.97;;;3.82;100.00
22550;BME280;11441;57.164;-2.120;2023-01-27T11:44:44;102373.81;;;3.57;100.00
22550;BME280;11441;57.164;-2.120;2023-01-27T11:47:22;102367.31;;;3.74;100.00
22550;BME280;11441;57.164;-2.120;2023-01-27T11:49:51;102363.19;;;3.61;100.00
22550;BME280;11441;57.164;-2.120;2023-01-27T11:52:21;102359.44;;;3.14;100.00
22550;BME280;11441;57.164;-2.120;2023-01-27T11:57:43;102363.28;;;3.24;100.00
22550;BME280;11441;57.164;-2.120;2023-01-27T12:00:34;102362.72;;;3.16;100.00
22550;BME280;11441;57.164;-2.120;2023-01-27T12:03:10;102362.72;;;3.16;100.00
22550;BME280;11441;57.164;-2.120;2023-01-27T12:05:46;102358.88;;;3.12;100.00
22550;BME280;11441;57.164;-2.120;2023-01-27T12:08:52;102350.41;;;3.04;100.00
22550;BME280;11441;57.164;-2.120;2023-01-27T12:13:58;102355.13;;;3.29;100.00
22550;BME280;11441;57.164;-2.120;2023-01-27T12:16:43;102355.44;;;3.32;100.00
22550;BME280;11441;57.164;-2.120;2023-01-27T12:19:39;102359.22;;;3.26;100.00
22550;BME280;11441;57.164;-2.120;2023-01-27T12:22:16;102360.63;;;3.34;100.00
22550;BME280;11441;57.164;-2.120;2023-01-27T12:24:54;102356.41;;;3.11;100.00
22550;BME280;11441;57.164;-2.120;2023-01-27T12:27:26;102346.38;;;3.16;100.00
22550;BME280;11441;57.164;-2.120;2023-01-27T12:29:57;102358.13;;;3.27;100.00
22550;BME280;11441;57.164;-2.120;2023-01-27T12:32:40;102354.66;;;3.42;100.00
22550;BME280;11441;57.164;-2.120;2023-01-27T12:35:35;102343.53;;;3.49;100.00
22550;BME280;11441;57.164;-2.120;2023-01-27T12:38:06;102343.81;;;3.52;100.00
22550;BME280;11441;57.164;-2.120;2023-01-27T12:41:04;102350.41;;;3.72;100.00
22550;BME280;11441;57.164;-2.120;2023-01-27T12:43:49;102329.44;;;3.88;100.00
22550;BME280;11441;57.164;-2.120;2023-01-27T12:46:20;102327.28;;;4.05;100.00
22550;BME280;11441;57.164;-2.120;2023-01-27T12:48:53;102315.06;;;4.18;100.00
22550;BME280;11441;57.164;-2.120;2023-01-27T12:51:38;102319.13;;;4.31;100.00
22550;BME280;11441;57.164;-2.120;2023-01-27T12:54:23;102305.75;;;4.24;100.00
22550;BME280;11441;57.164;-2.120;2023-01-27T12:56:52;102297.56;;;4.24;100.00
22550;BME280;11441;57.164;-2.120;2023-01-27T12:59:22;102286.66;;;4.34;100.00
22550;BME280;11441;57.164;-2.120;2023-01-27T13:02:25;102275.19;;;4.58;100.00
22550;BME280;11441;57.164;-2.120;2023-01-27T13:04:57;102269.50;;;4.29;100.00
22550;BME280;11441;57.164;-2.120;2023-01-27T13:07:38;102261.84;;;4.31;100.00
22550;BME280;11441;57.164;-2.120;2023-01-27T13:10:14;102249.88;;;4.17;100.00
22550;BME280;11441;57.164;-2.120;2023-01-27T13:12:54;102250.69;;;4.12;100.00
22550;BME280;11441;57.164;-2.120;2023-01-27T13:15:26;102241.94;;;4.10;100.00
22550;BME280;11441;57.164;-2.120;2023-01-27T13:17:55;102247.94;;;4.12;100.00
22550;BME280;11441;57.164;-2.120;2023-01-27T13:20:30;102255.59;;;4.15;100.00
22550;BME280;11441;57.164;-2.120;2023-01-27T13:23:16;102253.94;;;4.29;100.00
22550;BME280;11441;57.164;-2.120;2023-01-27T13:28:36;102249.03;;;4.26;100.00
22550;BME280;11441;57.164;-2.120;2023-01-27T13:37:08;102237.56;;;4.19;100.00
22550;BME280;11441;57.164;-2.120;2023-01-27T13:42:29;102231.84;;;4.36;100.00
22550;BME280;11441;57.164;-2.120;2023-01-27T13:45:03;102228.25;;;4.46;100.00
22550;BME280;11441;57.164;-2.120;2023-01-27T13:50:23;102211.34;;;4.44;100.00
22550;BME280;11441;57.164;-2.120;2023-01-27T13:52:56;102206.72;;;4.49;100.00
22550;BME280;11441;57.164;-2.120;2023-01-27T14:07:31;102206.34;;;4.71;100.00
22550;BME280;11441;57.164;-2.120;2023-01-27T14:10:39;102202.84;;;4.66;100.00
22550;BME280;11441;57.164;-2.120;2023-01-27T14:16:27;102183.94;;;4.80;100.00
22550;BME280;11441;57.164;-2.120;2023-01-27T14:19:01;102173.38;;;4.58;100.00
22550;BME280;11441;57.164;-2.120;2023-01-27T14:21:55;102189.44;;;4.75;100.00
22550;BME280;11441;57.164;-2.120;2023-01-27T14:24:46;102178.22;;;4.81;100.00
22550;BME280;11441;57.164;-2.120;2023-01-27T14:27:40;102182.03;;;4.80;100.00
22550;BME280;11441;57.164;-2.120;2023-01-27T14:30:23;102178.53;;;4.64;100.00
22550;BME280;11441;57.164;-2.120;2023-01-27T14:35:55;102173.31;;;4.78;100.00
22550;BME280;11441;57.164;-2.120;2023-01-27T14:41:06;102173.63;;;4.61;100.00
22550;BME280;11441;57.164;-2.120;2023-01-27T14:49:56;102185.91;;;4.69;100.00
22550;BME280;11441;57.164;-2.120;2023-01-27T14:52:41;102186.72;;;4.69;100.00
22550;BME280;11441;57.164;-2.120;2023-01-27T14:55:30;102193.25;;;4.73;100.00
22550;BME280;11441;57.164;-2.120;2023-01-27T15:06:22;102193.25;;;4.73;100.00